sensor_id;sensor_type;location;lat;lon;timestamp;temperature;humidity
55313;DHT22;46892;45.668;11.756;2023-04-03T00:01:28;11.30;72.50
55313;DHT22;46892;45.668;11.756;2023-04-03T00:03:54;11.30;72.60
55313;DHT22;46892;45.668;11.756;2023-04-03T00:06:21;11.30;73.40
55313;DHT22;46892;45.668;11.756;2023-04-03T00:08:48;11.20;73.30
55313;DHT22;46892;45.668;11.756;2023-04-03T00:11:13;11.00;73.50
55313;DHT22;46892;45.668;11.756;2023-04-03T00:13:41;11.00;73.60
55313;DHT22;46892;45.668;11.756;2023-04-03T00:16:08;11.00;73.70
55313;DHT22;46892;45.668;11.756;2023-04-03T00:18:34;11.00;73.50
55313;DHT22;46892;45.668;11.756;2023-04-03T00:21:00;10.90;73.70
55313;DHT22;46892;45.668;11.756;2023-04-03T00:23:26;11.00;73.60
55313;DHT22;46892;45.668;11.756;2023-04-03T00:25:52;10.90;73.10
55313;DHT22;46892;45.668;11.756;2023-04-03T00:28:17;10.90;72.50
55313;DHT22;46892;45.668;11.756;2023-04-03T00:30:43;10.90;72.40
55313;DHT22;46892;45.668;11.756;2023-04-03T00:33:12;10.90;72.60
55313;DHT22;46892;45.668;11.756;2023-04-03T00:35:38;10.90;72.80
55313;DHT22;46892;45.668;11.756;2023-04-03T00:38:04;10.90;73.00
55313;DHT22;46892;45.668;11.756;2023-04-03T00:40:35;10.90;73.00
55313;DHT22;46892;45.668;11.756;2023-04-03T00:43:01;10.90;72.80
55313;DHT22;46892;45.668;11.756;2023-04-03T00:45:30;10.80;73.00
55313;DHT22;46892;45.668;11.756;2023-04-03T00:47:57;10.80;73.20
55313;DHT22;46892;45.668;11.756;2023-04-03T00:50:26;10.80;73.50
55313;DHT22;46892;45.668;11.756;2023-04-03T00:52:53;10.70;73.80
55313;DHT22;46892;45.668;11.756;2023-04-03T00:55:19;10.70;74.00
55313;DHT22;46892;45.668;11.756;2023-04-03T00:57:46;10.60;74.10
55313;DHT22;46892;45.668;11.756;2023-04-03T01:00:14;10.60;74.30
55313;DHT22;46892;45.668;11.756;2023-04-03T01:02:41;10.70;74.30
55313;DHT22;46892;45.668;11.756;2023-04-03T01:05:07;10.60;74.40
55313;DHT22;46892;45.668;11.756;2023-04-03T01:07:33;10.60;74.40
55313;DHT22;46892;45.668;11.756;2023-04-03T01:10:06;10.60;74.90
55313;DHT22;46892;45.668;11.756;2023-04-03T01:12:37;10.50;75.00
55313;DHT22;46892;45.668;11.756;2023-04-03T01:15:11;10.50;74.90
55313;DHT22;46892;45.668;11.756;2023-04-03T01:17:38;10.40;74.80
55313;DHT22;46892;45.668;11.756;2023-04-03T01:25:37;10.20;75.00
55313;DHT22;46892;45.668;11.756;2023-04-03T01:28:05;10.00;75.20
55313;DHT22;46892;45.668;11.756;2023-04-03T01:30:37;10.00;75.30
55313;DHT22;46892;45.668;11.756;2023-04-03T01:33:05;10.00;75.10
55313;DHT22;46892;45.668;11.756;2023-04-03T01:35:30;10.00;75.10
55313;DHT22;46892;45.668;11.756;2023-04-03T01:37:56;10.10;74.80
55313;DHT22;46892;45.668;11.756;2023-04-03T01:40:22;10.10;74.80
55313;DHT22;46892;45.668;11.756;2023-04-03T01:42:47;10.10;74.30
55313;DHT22;46892;45.668;11.756;2023-04-03T01:45:13;10.00;74.20
55313;DHT22;46892;45.668;11.756;2023-04-03T01:47:38;9.80;74.40
55313;DHT22;46892;45.668;11.756;2023-04-03T01:50:04;9.80;74.30
55313;DHT22;46892;45.668;11.756;2023-04-03T01:52:30;9.80;74.10
55313;DHT22;46892;45.668;11.756;2023-04-03T01:54:56;9.80;73.80
55313;DHT22;46892;45.668;11.756;2023-04-03T01:57:21;9.90;73.60
55313;DHT22;46892;45.668;11.756;2023-04-03T01:59:47;9.90;73.20
55313;DHT22;46892;45.668;11.756;2023-04-03T02:02:13;9.90;73.10
55313;DHT22;46892;45.668;11.756;2023-04-03T02:04:40;9.90;73.20
55313;DHT22;46892;45.668;11.756;2023-04-03T02:07:06;10.00;73.60
55313;DHT22;46892;45.668;11.756;2023-04-03T02:09:31;10.00;73.40
55313;DHT22;46892;45.668;11.756;2023-04-03T02:11:57;9.90;73.70
55313;DHT22;46892;45.668;11.756;2023-04-03T02:14:23;9.80;73.10
55313;DHT22;46892;45.668;11.756;2023-04-03T02:16:49;9.80;72.70
55313;DHT22;46892;45.668;11.756;2023-04-03T02:19:15;9.80;72.70
55313;DHT22;46892;45.668;11.756;2023-04-03T02:21:41;9.80;72.50
55313;DHT22;46892;45.668;11.756;2023-04-03T02:24:07;9.80;72.00
55313;DHT22;46892;45.668;11.756;2023-04-03T02:26:33;9.80;71.90
55313;DHT22;46892;45.668;11.756;2023-04-03T02:28:58;9.80;71.90
55313;DHT22;46892;45.668;11.756;2023-04-03T02:31:24;9.80;72.00
55313;DHT22;46892;45.668;11.756;2023-04-03T02:33:50;9.80;71.80
55313;DHT22;46892;45.668;11.756;2023-04-03T02:36:17;9.80;71.70
55313;DHT22;46892;45.668;11.756;2023-04-03T02:38:42;9.80;71.80
55313;DHT22;46892;45.668;11.756;2023-04-03T02:41:10;9.90;72.30
55313;DHT22;46892;45.668;11.756;2023-04-03T02:43:36;9.90;72.70
55313;DHT22;46892;45.668;11.756;2023-04-03T02:46:02;9.80;72.40
55313;DHT22;46892;45.668;11.756;2023-04-03T02:48:28;9.80;73.30
55313;DHT22;46892;45.668;11.756;2023-04-03T02:50:54;9.70;72.80
55313;DHT22;46892;45.668;11.756;2023-04-03T02:53:20;9.70;72.40
55313;DHT22;46892;45.668;11.756;2023-04-03T02:55:45;9.60;72.50
55313;DHT22;46892;45.668;11.756;2023-04-03T02:58:11;9.60;72.50
55313;DHT22;46892;45.668;11.756;2023-04-03T03:00:37;9.70;72.50
55313;DHT22;46892;45.668;11.756;2023-04-03T03:03:03;9.70;72.40
55313;DHT22;46892;45.668;11.756;2023-04-03T03:05:29;9.70;72.20
55313;DHT22;46892;45.668;11.756;2023-04-03T03:07:55;9.60;72.40
55313;DHT22;46892;45.668;11.756;2023-04-03T03:10:21;9.60;72.40
55313;DHT22;46892;45.668;11.756;2023-04-03T03:12:47;9.50;72.50
55313;DHT22;46892;45.668;11.756;2023-04-03T03:15:13;9.50;72.60
55313;DHT22;46892;45.668;11.756;2023-04-03T03:17:38;9.50;72.40
55313;DHT22;46892;45.668;11.756;2023-04-03T03:20:05;9.30;72.70
55313;DHT22;46892;45.668;11.756;2023-04-03T03:22:31;9.20;73.10
55313;DHT22;46892;45.668;11.756;2023-04-03T03:24:57;9.20;72.90
55313;DHT22;46892;45.668;11.756;2023-04-03T03:27:23;9.00;72.90
55313;DHT22;46892;45.668;11.756;2023-04-03T03:29:49;9.00;72.50
55313;DHT22;46892;45.668;11.756;2023-04-03T03:32:15;9.00;72.20
55313;DHT22;46892;45.668;11.756;2023-04-03T03:34:40;9.00;72.10
55313;DHT22;46892;45.668;11.756;2023-04-03T03:37:06;9.00;72.60
55313;DHT22;46892;45.668;11.756;2023-04-03T03:39:32;9.00;73.40
55313;DHT22;46892;45.668;11.756;2023-04-03T03:41:57;9.00;73.40
55313;DHT22;46892;45.668;11.756;2023-04-03T03:44:23;9.00;73.30
55313;DHT22;46892;45.668;11.756;2023-04-03T03:46:49;9.00;73.50
55313;DHT22;46892;45.668;11.756;2023-04-03T03:49:14;8.90;73.60
55313;DHT22;46892;45.668;11.756;2023-04-03T03:51:40;9.00;73.80
55313;DHT22;46892;45.668;11.756;2023-04-03T03:54:07;9.00;73.50
55313;DHT22;46892;45.668;11.756;2023-04-03T03:56:33;9.00;73.40
55313;DHT22;46892;45.668;11.756;2023-04-03T03:58:59;9.10;73.50
55313;DHT22;46892;45.668;11.756;2023-04-03T04:01:25;9.00;73.70
55313;DHT22;46892;45.668;11.756;2023-04-03T04:03:51;9.10;73.60
55313;DHT22;46892;45.668;11.756;2023-04-03T04:06:19;9.10;73.80
55313;DHT22;46892;45.668;11.756;2023-04-03T04:08:45;9.20;73.90
55313;DHT22;46892;45.668;11.756;2023-04-03T04:11:10;9.20;74.00
55313;DHT22;46892;45.668;11.756;2023-04-03T04:13:36;9.30;73.90
55313;DHT22;46892;45.668;11.756;2023-04-03T04:16:02;9.30;74.40
55313;DHT22;46892;45.668;11.756;2023-04-03T04:18:28;9.30;74.40
55313;DHT22;46892;45.668;11.756;2023-04-03T04:20:54;9.40;74.60
55313;DHT22;46892;45.668;11.756;2023-04-03T04:23:19;9.40;74.70
55313;DHT22;46892;45.668;11.756;2023-04-03T04:25:46;9.50;75.30
55313;DHT22;46892;45.668;11.756;2023-04-03T04:28:12;9.40;74.90
55313;DHT22;46892;45.668;11.756;2023-04-03T04:30:38;9.50;75.00
55313;DHT22;46892;45.668;11.756;2023-04-03T04:33:03;9.50;74.70
55313;DHT22;46892;45.668;11.756;2023-04-03T04:35:29;9.50;74.70
55313;DHT22;46892;45.668;11.756;2023-04-03T04:37:55;9.40;74.70
55313;DHT22;46892;45.668;11.756;2023-04-03T04:40:21;9.50;74.80
55313;DHT22;46892;45.668;11.756;2023-04-03T04:42:46;9.50;74.80
55313;DHT22;46892;45.668;11.756;2023-04-03T04:45:12;9.40;74.70
55313;DHT22;46892;45.668;11.756;2023-04-03T04:47:38;9.40;74.90
55313;DHT22;46892;45.668;11.756;2023-04-03T04:50:05;9.40;75.20
55313;DHT22;46892;45.668;11.756;2023-04-03T04:52:30;9.50;75.00
55313;DHT22;46892;45.668;11.756;2023-04-03T04:54:56;9.50;74.90
55313;DHT22;46892;45.668;11.756;2023-04-03T04:57:22;9.60;75.10
55313;DHT22;46892;45.668;11.756;2023-04-03T04:59:47;9.60;74.90
55313;DHT22;46892;45.668;11.756;2023-04-03T05:02:13;9.60;75.00
55313;DHT22;46892;45.668;11.756;2023-04-03T05:04:39;9.50;75.00
55313;DHT22;46892;45.668;11.756;2023-04-03T05:07:04;9.50;75.70
55313;DHT22;46892;45.668;11.756;2023-04-03T05:09:30;9.60;75.40
55313;DHT22;46892;45.668;11.756;2023-04-03T05:11:56;9.60;75.20
55313;DHT22;46892;45.668;11.756;2023-04-03T05:14:22;9.80;75.00
55313;DHT22;46892;45.668;11.756;2023-04-03T05:16:47;9.80;74.50
55313;DHT22;46892;45.668;11.756;2023-04-03T05:19:13;9.90;74.00
55313;DHT22;46892;45.668;11.756;2023-04-03T05:21:39;9.90;73.80
55313;DHT22;46892;45.668;11.756;2023-04-03T05:24:05;9.80;74.30
55313;DHT22;46892;45.668;11.756;2023-04-03T05:26:34;9.80;74.40
55313;DHT22;46892;45.668;11.756;2023-04-03T05:29:00;9.80;74.70
55313;DHT22;46892;45.668;11.756;2023-04-03T05:31:26;9.80;74.90
55313;DHT22;46892;45.668;11.756;2023-04-03T05:33:55;9.80;74.70
55313;DHT22;46892;45.668;11.756;2023-04-03T05:36:20;9.90;74.80
55313;DHT22;46892;45.668;11.756;2023-04-03T05:38:46;9.90;74.20
55313;DHT22;46892;45.668;11.756;2023-04-03T05:41:13;9.80;74.40
55313;DHT22;46892;45.668;11.756;2023-04-03T05:43:39;9.90;74.80
55313;DHT22;46892;45.668;11.756;2023-04-03T05:46:16;10.00;74.70
55313;DHT22;46892;45.668;11.756;2023-04-03T05:48:42;10.30;74.30
55313;DHT22;46892;45.668;11.756;2023-04-03T05:51:15;10.90;73.70
55313;DHT22;46892;45.668;11.756;2023-04-03T05:53:41;11.80;71.60
55313;DHT22;46892;45.668;11.756;2023-04-03T05:56:08;12.40;69.50
55313;DHT22;46892;45.668;11.756;2023-04-03T05:58:34;13.10;67.50
55313;DHT22;46892;45.668;11.756;2023-04-03T06:00:59;13.80;63.70
55313;DHT22;46892;45.668;11.756;2023-04-03T06:03:26;14.10;62.40
55313;DHT22;46892;45.668;11.756;2023-04-03T06:05:52;14.50;61.30
55313;DHT22;46892;45.668;11.756;2023-04-03T06:08:17;14.80;61.20
55313;DHT22;46892;45.668;11.756;2023-04-03T06:10:44;14.90;58.90
55313;DHT22;46892;45.668;11.756;2023-04-03T06:13:10;15.00;59.10
55313;DHT22;46892;45.668;11.756;2023-04-03T06:15:37;15.20;59.10
55313;DHT22;46892;45.668;11.756;2023-04-03T06:18:03;15.20;58.40
55313;DHT22;46892;45.668;11.756;2023-04-03T06:20:29;15.10;59.20
55313;DHT22;46892;45.668;11.756;2023-04-03T06:22:56;15.00;60.10
55313;DHT22;46892;45.668;11.756;2023-04-03T06:25:22;15.10;58.50
55313;DHT22;46892;45.668;11.756;2023-04-03T06:27:48;15.20;58.80
55313;DHT22;46892;45.668;11.756;2023-04-03T06:30:14;15.20;59.00
55313;DHT22;46892;45.668;11.756;2023-04-03T06:32:40;15.30;59.10
55313;DHT22;46892;45.668;11.756;2023-04-03T06:35:06;15.30;59.60
55313;DHT22;46892;45.668;11.756;2023-04-03T06:37:32;15.30;57.80
55313;DHT22;46892;45.668;11.756;2023-04-03T06:39:58;15.30;58.80
55313;DHT22;46892;45.668;11.756;2023-04-03T06:42:25;15.30;57.60
55313;DHT22;46892;45.668;11.756;2023-04-03T06:44:51;15.30;58.40
55313;DHT22;46892;45.668;11.756;2023-04-03T06:47:17;15.20;58.00
55313;DHT22;46892;45.668;11.756;2023-04-03T06:49:43;14.80;58.80
55313;DHT22;46892;45.668;11.756;2023-04-03T06:52:10;14.20;60.30
55313;DHT22;46892;45.668;11.756;2023-04-03T06:54:37;13.70;61.90
55313;DHT22;46892;45.668;11.756;2023-04-03T06:57:03;13.20;63.90
55313;DHT22;46892;45.668;11.756;2023-04-03T06:59:29;12.80;64.70
55313;DHT22;46892;45.668;11.756;2023-04-03T07:01:55;12.70;66.80
55313;DHT22;46892;45.668;11.756;2023-04-03T07:04:21;12.50;66.30
55313;DHT22;46892;45.668;11.756;2023-04-03T07:06:47;12.40;67.60
55313;DHT22;46892;45.668;11.756;2023-04-03T07:09:14;12.30;66.30
55313;DHT22;46892;45.668;11.756;2023-04-03T07:11:40;12.00;67.50
55313;DHT22;46892;45.668;11.756;2023-04-03T07:14:06;11.80;69.70
55313;DHT22;46892;45.668;11.756;2023-04-03T07:16:34;11.70;68.70
55313;DHT22;46892;45.668;11.756;2023-04-03T07:19:00;11.70;70.60
55313;DHT22;46892;45.668;11.756;2023-04-03T07:21:27;11.60;69.40
55313;DHT22;46892;45.668;11.756;2023-04-03T07:23:53;11.50;69.20
55313;DHT22;46892;45.668;11.756;2023-04-03T07:26:19;11.50;69.50
55313;DHT22;46892;45.668;11.756;2023-04-03T07:28:46;11.60;70.70
55313;DHT22;46892;45.668;11.756;2023-04-03T07:31:14;11.50;69.00
55313;DHT22;46892;45.668;11.756;2023-04-03T07:33:41;11.60;70.90
55313;DHT22;46892;45.668;11.756;2023-04-03T07:36:07;11.70;69.80
55313;DHT22;46892;45.668;11.756;2023-04-03T07:38:34;11.60;69.70
55313;DHT22;46892;45.668;11.756;2023-04-03T07:41:00;11.50;70.30
55313;DHT22;46892;45.668;11.756;2023-04-03T07:43:27;11.60;69.50
55313;DHT22;46892;45.668;11.756;2023-04-03T07:45:53;11.60;69.80
55313;DHT22;46892;45.668;11.756;2023-04-03T07:48:24;11.60;69.10
55313;DHT22;46892;45.668;11.756;2023-04-03T07:50:50;11.70;70.40
55313;DHT22;46892;45.668;11.756;2023-04-03T07:53:17;11.80;69.60
55313;DHT22;46892;45.668;11.756;2023-04-03T07:55:46;11.80;69.10
55313;DHT22;46892;45.668;11.756;2023-04-03T07:58:14;11.80;67.30
55313;DHT22;46892;45.668;11.756;2023-04-03T08:00:41;11.80;70.20
55313;DHT22;46892;45.668;11.756;2023-04-03T08:03:08;12.00;68.30
55313;DHT22;46892;45.668;11.756;2023-04-03T08:05:43;12.20;69.20
55313;DHT22;46892;45.668;11.756;2023-04-03T08:08:10;12.20;67.60
55313;DHT22;46892;45.668;11.756;2023-04-03T08:10:37;12.30;67.30
55313;DHT22;46892;45.668;11.756;2023-04-03T08:13:03;12.30;67.70
55313;DHT22;46892;45.668;11.756;2023-04-03T08:15:30;12.40;67.40
55313;DHT22;46892;45.668;11.756;2023-04-03T08:17:57;12.50;67.10
55313;DHT22;46892;45.668;11.756;2023-04-03T08:20:23;12.80;66.30
55313;DHT22;46892;45.668;11.756;2023-04-03T08:22:49;12.80;64.50
55313;DHT22;46892;45.668;11.756;2023-04-03T08:25:15;13.00;66.00
55313;DHT22;46892;45.668;11.756;2023-04-03T08:27:40;13.00;64.90
55313;DHT22;46892;45.668;11.756;2023-04-03T08:30:07;13.10;63.90
55313;DHT22;46892;45.668;11.756;2023-04-03T08:32:34;13.30;63.10
55313;DHT22;46892;45.668;11.756;2023-04-03T08:35:01;13.50;61.00
55313;DHT22;46892;45.668;11.756;2023-04-03T08:37:27;13.60;60.70
55313;DHT22;46892;45.668;11.756;2023-04-03T08:39:53;13.60;60.70
55313;DHT22;46892;45.668;11.756;2023-04-03T08:50:17;13.80;61.40
55313;DHT22;46892;45.668;11.756;2023-04-03T08:52:52;13.80;58.30
55313;DHT22;46892;45.668;11.756;2023-04-03T08:55:31;13.70;60.10
55313;DHT22;46892;45.668;11.756;2023-04-03T08:58:02;13.70;63.10
55313;DHT22;46892;45.668;11.756;2023-04-03T09:03:18;14.00;59.70
55313;DHT22;46892;45.668;11.756;2023-04-03T09:05:57;14.00;60.90
55313;DHT22;46892;45.668;11.756;2023-04-03T09:08:34;13.90;60.60
55313;DHT22;46892;45.668;11.756;2023-04-03T09:19:01;14.20;58.40
55313;DHT22;46892;45.668;11.756;2023-04-03T09:21:34;14.00;60.50
55313;DHT22;46892;45.668;11.756;2023-04-03T09:24:06;13.90;62.80
55313;DHT22;46892;45.668;11.756;2023-04-03T09:26:36;13.80;60.50
55313;DHT22;46892;45.668;11.756;2023-04-03T09:29:08;13.70;61.20
55313;DHT22;46892;45.668;11.756;2023-04-03T09:31:42;13.70;60.20
55313;DHT22;46892;45.668;11.756;2023-04-03T09:34:31;13.50;59.00
55313;DHT22;46892;45.668;11.756;2023-04-03T09:37:02;13.50;59.00
55313;DHT22;46892;45.668;11.756;2023-04-03T09:39:32;13.50;59.50
55313;DHT22;46892;45.668;11.756;2023-04-03T09:42:04;13.30;56.70
55313;DHT22;46892;45.668;11.756;2023-04-03T09:46:58;13.20;57.50
55313;DHT22;46892;45.668;11.756;2023-04-03T09:49:24;13.30;58.00
55313;DHT22;46892;45.668;11.756;2023-04-03T09:51:50;13.60;59.00
55313;DHT22;46892;45.668;11.756;2023-04-03T09:54:45;13.70;57.20
55313;DHT22;46892;45.668;11.756;2023-04-03T09:57:13;13.80;58.70
55313;DHT22;46892;45.668;11.756;2023-04-03T09:59:44;14.00;58.50
55313;DHT22;46892;45.668;11.756;2023-04-03T10:02:21;14.20;58.80
55313;DHT22;46892;45.668;11.756;2023-04-03T10:04:47;14.30;59.40
55313;DHT22;46892;45.668;11.756;2023-04-03T10:07:46;14.30;55.70
55313;DHT22;46892;45.668;11.756;2023-04-03T10:10:16;14.40;55.60
55313;DHT22;46892;45.668;11.756;2023-04-03T10:12:43;14.50;56.00
55313;DHT22;46892;45.668;11.756;2023-04-03T10:15:17;14.60;52.10
55313;DHT22;46892;45.668;11.756;2023-04-03T10:18:00;14.60;55.10
55313;DHT22;46892;45.668;11.756;2023-04-03T10:20:39;14.70;56.00
55313;DHT22;46892;45.668;11.756;2023-04-03T10:31:33;14.20;55.20
55313;DHT22;46892;45.668;11.756;2023-04-03T10:34:21;13.90;56.20
55313;DHT22;46892;45.668;11.756;2023-04-03T10:39:39;13.60;56.10
55313;DHT22;46892;45.668;11.756;2023-04-03T10:47:40;13.80;55.80
55313;DHT22;46892;45.668;11.756;2023-04-03T10:50:38;13.80;56.80
55313;DHT22;46892;45.668;11.756;2023-04-03T10:53:29;13.80;55.70
55313;DHT22;46892;45.668;11.756;2023-04-03T10:56:21;13.80;58.10
55313;DHT22;46892;45.668;11.756;2023-04-03T10:59:07;13.90;55.70
55313;DHT22;46892;45.668;11.756;2023-04-03T11:01:39;13.80;55.80
55313;DHT22;46892;45.668;11.756;2023-04-03T11:04:06;13.90;55.90
55313;DHT22;46892;45.668;11.756;2023-04-03T11:06:41;13.80;54.10
55313;DHT22;46892;45.668;11.756;2023-04-03T11:11:39;13.70;55.90
55313;DHT22;46892;45.668;11.756;2023-04-03T11:19:39;13.60;54.30
55313;DHT22;46892;45.668;11.756;2023-04-03T11:22:32;13.80;54.70
55313;DHT22;46892;45.668;11.756;2023-04-03T11:25:08;14.00;54.30
55313;DHT22;46892;45.668;11.756;2023-04-03T11:28:05;14.10;56.40
55313;DHT22;46892;45.668;11.756;2023-04-03T11:30:39;14.00;52.00
55313;DHT22;46892;45.668;11.756;2023-04-03T11:36:28;13.90;55.30
55313;DHT22;46892;45.668;11.756;2023-04-03T11:38:50;13.80;53.60
55313;DHT22;46892;45.668;11.756;2023-04-03T11:41:29;13.70;52.90
55313;DHT22;46892;45.668;11.756;2023-04-03T11:44:06;13.80;55.80
55313;DHT22;46892;45.668;11.756;2023-04-03T11:46:53;13.80;53.90
55313;DHT22;46892;45.668;11.756;2023-04-03T11:52:55;14.00;57.20
55313;DHT22;46892;45.668;11.756;2023-04-03T12:16:32;15.50;52.50
55313;DHT22;46892;45.668;11.756;2023-04-03T12:19:02;15.60;54.50
55313;DHT22;46892;45.668;11.756;2023-04-03T12:35:10;15.20;53.10
55313;DHT22;46892;45.668;11.756;2023-04-03T12:48:27;15.50;52.10
55313;DHT22;46892;45.668;11.756;2023-04-03T12:50:54;15.60;52.40
55313;DHT22;46892;45.668;11.756;2023-04-03T12:53:26;15.60;50.50
55313;DHT22;46892;45.668;11.756;2023-04-03T12:55:57;15.60;51.10
55313;DHT22;46892;45.668;11.756;2023-04-03T12:58:27;15.50;49.70
55313;DHT22;46892;45.668;11.756;2023-04-03T13:01:09;15.30;51.10
55313;DHT22;46892;45.668;11.756;2023-04-03T13:03:42;15.30;50.60
55313;DHT22;46892;45.668;11.756;2023-04-03T13:06:19;15.30;52.60
55313;DHT22;46892;45.668;11.756;2023-04-03T13:08:56;15.40;54.50
55313;DHT22;46892;45.668;11.756;2023-04-03T13:11:25;15.50;53.90
55313;DHT22;46892;45.668;11.756;2023-04-03T13:14:05;15.40;49.60
55313;DHT22;46892;45.668;11.756;2023-04-03T13:16:32;15.30;53.20
55313;DHT22;46892;45.668;11.756;2023-04-03T13:18:58;15.30;51.00
55313;DHT22;46892;45.668;11.756;2023-04-03T13:21:27;15.30;50.00
55313;DHT22;46892;45.668;11.756;2023-04-03T13:23:56;15.30;51.50
55313;DHT22;46892;45.668;11.756;2023-04-03T13:26:26;15.30;49.70
55313;DHT22;46892;45.668;11.756;2023-04-03T13:28:54;15.40;52.10
55313;DHT22;46892;45.668;11.756;2023-04-03T13:31:26;15.40;50.20
55313;DHT22;46892;45.668;11.756;2023-04-03T13:34:11;15.50;51.20
55313;DHT22;46892;45.668;11.756;2023-04-03T13:36:42;15.40;50.90
55313;DHT22;46892;45.668;11.756;2023-04-03T13:41:41;15.50;53.50
55313;DHT22;46892;45.668;11.756;2023-04-03T13:47:15;15.50;51.70
55313;DHT22;46892;45.668;11.756;2023-04-03T13:50:03;15.40;51.70
55313;DHT22;46892;45.668;11.756;2023-04-03T13:52:39;15.20;50.80
55313;DHT22;46892;45.668;11.756;2023-04-03T13:55:27;15.20;51.30
55313;DHT22;46892;45.668;11.756;2023-04-03T14:00:56;15.40;53.30
55313;DHT22;46892;45.668;11.756;2023-04-03T14:03:31;15.50;52.50
55313;DHT22;46892;45.668;11.756;2023-04-03T14:05:57;15.50;50.50
55313;DHT22;46892;45.668;11.756;2023-04-03T14:08:23;15.50;49.50
55313;DHT22;46892;45.668;11.756;2023-04-03T14:10:49;15.60;52.50
55313;DHT22;46892;45.668;11.756;2023-04-03T14:13:18;15.60;53.80
55313;DHT22;46892;45.668;11.756;2023-04-03T14:15:45;15.50;51.30
55313;DHT22;46892;45.668;11.756;2023-04-03T14:18:16;15.50;52.30
55313;DHT22;46892;45.668;11.756;2023-04-03T14:20:43;15.50;51.60
55313;DHT22;46892;45.668;11.756;2023-04-03T14:23:09;15.30;54.40
55313;DHT22;46892;45.668;11.756;2023-04-03T14:25:35;15.30;54.40
55313;DHT22;46892;45.668;11.756;2023-04-03T14:28:01;15.20;52.80
55313;DHT22;46892;45.668;11.756;2023-04-03T14:30:37;15.20;52.50
55313;DHT22;46892;45.668;11.756;2023-04-03T14:33:03;15.20;52.40
55313;DHT22;46892;45.668;11.756;2023-04-03T14:35:29;15.20;55.10
55313;DHT22;46892;45.668;11.756;2023-04-03T14:37:55;15.20;53.80
55313;DHT22;46892;45.668;11.756;2023-04-03T14:40:25;15.20;52.90
55313;DHT22;46892;45.668;11.756;2023-04-03T14:42:51;15.20;54.00
55313;DHT22;46892;45.668;11.756;2023-04-03T14:45:21;15.30;54.30
55313;DHT22;46892;45.668;11.756;2023-04-03T14:47:56;15.20;52.70
55313;DHT22;46892;45.668;11.756;2023-04-03T14:50:25;15.10;52.30
55313;DHT22;46892;45.668;11.756;2023-04-03T14:52:53;15.20;53.10
55313;DHT22;46892;45.668;11.756;2023-04-03T14:55:21;15.20;52.40
55313;DHT22;46892;45.668;11.756;2023-04-03T14:57:47;15.00;48.60
55313;DHT22;46892;45.668;11.756;2023-04-03T15:00:15;14.80;47.60
55313;DHT22;46892;45.668;11.756;2023-04-03T15:02:42;14.80;48.90
55313;DHT22;46892;45.668;11.756;2023-04-03T15:05:09;14.70;49.30
55313;DHT22;46892;45.668;11.756;2023-04-03T15:07:45;14.60;50.50
55313;DHT22;46892;45.668;11.756;2023-04-03T15:12:41;14.50;50.60
55313;DHT22;46892;45.668;11.756;2023-04-03T15:15:08;14.30;50.00
55313;DHT22;46892;45.668;11.756;2023-04-03T15:17:34;14.30;49.80
55313;DHT22;46892;45.668;11.756;2023-04-03T15:20:01;14.20;48.00
55313;DHT22;46892;45.668;11.756;2023-04-03T15:22:27;14.20;48.20
55313;DHT22;46892;45.668;11.756;2023-04-03T15:24:53;14.10;49.00
55313;DHT22;46892;45.668;11.756;2023-04-03T15:27:18;14.00;48.00
55313;DHT22;46892;45.668;11.756;2023-04-03T15:29:44;14.00;48.80
55313;DHT22;46892;45.668;11.756;2023-04-03T15:32:11;14.00;48.70
55313;DHT22;46892;45.668;11.756;2023-04-03T15:34:38;13.90;49.80
55313;DHT22;46892;45.668;11.756;2023-04-03T15:37:04;13.90;47.40
55313;DHT22;46892;45.668;11.756;2023-04-03T15:39:30;13.80;47.80
55313;DHT22;46892;45.668;11.756;2023-04-03T15:41:56;13.80;48.70
55313;DHT22;46892;45.668;11.756;2023-04-03T15:44:25;13.80;48.10
55313;DHT22;46892;45.668;11.756;2023-04-03T15:46:51;13.80;50.50
55313;DHT22;46892;45.668;11.756;2023-04-03T15:49:18;13.90;49.30
55313;DHT22;46892;45.668;11.756;2023-04-03T15:51:44;13.90;50.00
55313;DHT22;46892;45.668;11.756;2023-04-03T15:54:10;13.80;47.40
55313;DHT22;46892;45.668;11.756;2023-04-03T15:56:35;13.80;48.90
55313;DHT22;46892;45.668;11.756;2023-04-03T15:59:01;13.80;49.10
55313;DHT22;46892;45.668;11.756;2023-04-03T16:01:27;13.90;49.40
55313;DHT22;46892;45.668;11.756;2023-04-03T16:03:53;13.80;49.40
55313;DHT22;46892;45.668;11.756;2023-04-03T16:06:19;13.80;50.80
55313;DHT22;46892;45.668;11.756;2023-04-03T16:08:47;13.80;48.60
55313;DHT22;46892;45.668;11.756;2023-04-03T16:11:14;13.80;47.90
55313;DHT22;46892;45.668;11.756;2023-04-03T16:13:40;13.70;49.50
55313;DHT22;46892;45.668;11.756;2023-04-03T16:16:06;13.70;49.10
55313;DHT22;46892;45.668;11.756;2023-04-03T16:18:34;13.60;50.30
55313;DHT22;46892;45.668;11.756;2023-04-03T16:21:00;13.50;50.20
55313;DHT22;46892;45.668;11.756;2023-04-03T16:23:26;13.50;49.80
55313;DHT22;46892;45.668;11.756;2023-04-03T16:25:52;13.50;50.40
55313;DHT22;46892;45.668;11.756;2023-04-03T16:28:18;13.40;49.70
55313;DHT22;46892;45.668;11.756;2023-04-03T16:30:45;13.40;50.40
55313;DHT22;46892;45.668;11.756;2023-04-03T16:33:12;13.30;48.60
55313;DHT22;46892;45.668;11.756;2023-04-03T16:35:38;13.30;46.50
55313;DHT22;46892;45.668;11.756;2023-04-03T16:38:04;13.20;47.60
55313;DHT22;46892;45.668;11.756;2023-04-03T16:40:30;13.20;49.70
55313;DHT22;46892;45.668;11.756;2023-04-03T16:42:56;13.20;49.80
55313;DHT22;46892;45.668;11.756;2023-04-03T16:45:22;13.20;48.50
55313;DHT22;46892;45.668;11.756;2023-04-03T16:47:47;13.00;47.40
55313;DHT22;46892;45.668;11.756;2023-04-03T16:50:13;13.10;49.00
55313;DHT22;46892;45.668;11.756;2023-04-03T16:52:39;13.10;49.00
55313;DHT22;46892;45.668;11.756;2023-04-03T16:55:05;13.00;49.90
55313;DHT22;46892;45.668;11.756;2023-04-03T16:57:31;12.90;49.90
55313;DHT22;46892;45.668;11.756;2023-04-03T16:59:57;12.90;51.30
55313;DHT22;46892;45.668;11.756;2023-04-03T17:02:23;12.80;50.40
55313;DHT22;46892;45.668;11.756;2023-04-03T17:04:53;12.80;51.00
55313;DHT22;46892;45.668;11.756;2023-04-03T17:07:20;12.80;51.50
55313;DHT22;46892;45.668;11.756;2023-04-03T17:09:47;12.80;50.80
55313;DHT22;46892;45.668;11.756;2023-04-03T17:12:13;12.70;52.70
55313;DHT22;46892;45.668;11.756;2023-04-03T17:14:38;12.70;51.10
55313;DHT22;46892;45.668;11.756;2023-04-03T17:17:04;12.70;51.90
55313;DHT22;46892;45.668;11.756;2023-04-03T17:19:30;12.50;51.40
55313;DHT22;46892;45.668;11.756;2023-04-03T17:21:56;12.40;50.10